Time;durP1;ratioP1;P1;durP2;ratioP2;P2;SDS_P1;SDS_P2;PMS_P1;PMS_P2;Temp;Humidity;BMP_temperature;BMP_pressure;BME280_temperature;BME280_humidity;BME280_pressure;Samples;Min_cycle;Max_cycle;Signal;HPM_P1;HPM_P2
2023/10/01 00:00:46;;;;;;;13.23;6.57;;;14.70;99.90;;;;;;5097192;27;20067;-77
2023/10/01 00:03:32;;;;;;;13.05;4.10;;;14.60;99.90;;;;;;5068211;28;20036;-77
2023/10/01 00:06:18;;;;;;;7.30;3.40;;;14.60;99.90;;;;;;5070808;28;20043;-77
2023/10/01 00:09:05;;;;;;;12.48;4.32;;;14.60;99.90;;;;;;5072656;27;20035;-77
2023/10/01 00:11:51;;;;;;;10.60;3.63;;;14.60;99.90;;;;;;5096544;28;20036;-77
2023/10/01 00:14:37;;;;;;;11.88;3.92;;;14.60;99.90;;;;;;5102818;27;20574;-77
2023/10/01 00:17:23;;;;;;;11.45;3.53;;;14.60;99.90;;;;;;5076668;28;20063;-75
2023/10/01 00:20:20;;;;;;;8.60;3.78;;;14.60;99.90;;;;;;5067065;28;20035;-75
2023/10/01 00:23:06;;;;;;;9.10;3.70;;;14.60;99.90;;;;;;5094430;27;20546;-75
2023/10/01 00:25:52;;;;;;;10.55;3.80;;;14.60;99.90;;;;;;5098562;28;20047;-75
2023/10/01 00:28:38;;;;;;;9.65;3.30;;;14.60;99.90;;;;;;5097466;27;20046;-75
2023/10/01 00:31:24;;;;;;;7.93;3.60;;;14.60;99.90;;;;;;5085569;28;20052;-75
2023/10/01 00:34:10;;;;;;;10.00;4.22;;;14.60;99.90;;;;;;5099334;27;20464;-75
2023/10/01 00:36:56;;;;;;;6.97;3.47;;;14.70;99.90;;;;;;5079311;28;20123;-75
2023/10/01 00:39:43;;;;;;;11.70;3.95;;;14.70;99.90;;;;;;5106019;27;20039;-75
2023/10/01 00:42:32;;;;;;;10.00;3.47;;;14.70;99.90;;;;;;5100461;27;20700;-75
2023/10/01 00:45:20;;;;;;;8.38;3.45;;;14.60;99.90;;;;;;5086119;28;20120;-75
2023/10/01 00:48:07;;;;;;;8.23;3.10;;;14.60;99.90;;;;;;5098400;28;20479;-75
2023/10/01 00:50:54;;;;;;;9.13;3.67;;;14.60;99.90;;;;;;5066347;28;20062;-75
2023/10/01 00:53:40;;;;;;;10.95;3.22;;;14.60;99.90;;;;;;5081747;28;20088;-75
2023/10/01 00:56:26;;;;;;;10.98;3.42;;;14.70;99.90;;;;;;5056199;28;20049;-75
2023/10/01 00:59:12;;;;;;;10.57;3.60;;;14.70;99.90;;;;;;5096848;28;20077;-75
2023/10/01 01:02:07;;;;;;;8.13;3.40;;;14.70;99.90;;;;;;5105715;27;20068;-75
2023/10/01 01:05:19;;;;;;;6.97;2.90;;;14.70;99.90;;;;;;5086878;28;20039;-75
2023/10/01 01:08:21;;;;;;;8.93;3.55;;;14.70;99.90;;;;;;5078171;27;20344;-75
2023/10/01 01:11:06;;;;;;;9.15;3.13;;;14.70;99.90;;;;;;5094679;28;20040;-75
2023/10/01 01:13:52;;;;;;;15.32;3.70;;;14.70;99.90;;;;;;5098205;27;20035;-75
2023/10/01 01:16:40;;;;;;;9.63;3.60;;;14.70;99.90;;;;;;5111180;28;20073;-77
2023/10/01 01:19:26;;;;;;;10.07;3.20;;;14.70;99.90;;;;;;5071670;27;20043;-77
2023/10/01 01:22:28;;;;;;;8.40;3.42;;;14.70;99.90;;;;;;5092755;28;20050;-77
2023/10/01 01:25:20;;;;;;;9.73;3.08;;;14.70;99.90;;;;;;5085780;28;20056;-77
2023/10/01 01:28:12;;;;;;;10.75;3.67;;;14.70;99.90;;;;;;5094181;27;20067;-77
2023/10/01 01:31:03;;;;;;;6.55;2.90;;;14.60;99.90;;;;;;5064510;28;20074;-77
2023/10/01 01:33:56;;;;;;;8.60;3.60;;;14.60;99.90;;;;;;5065262;27;20403;-77
2023/10/01 01:36:42;;;;;;;7.07;3.42;;;14.60;99.90;;;;;;5079647;28;20039;-77
2023/10/01 01:39:45;;;;;;;9.13;3.50;;;14.60;99.90;;;;;;5083450;27;20054;-77
2023/10/01 01:42:33;;;;;;;10.52;3.47;;;14.50;99.90;;;;;;5099560;28;20074;-79
2023/10/01 01:45:25;;;;;;;7.95;3.00;;;14.50;99.90;;;;;;5085650;27;20096;-76
2023/10/01 01:48:30;;;;;;;6.18;2.92;;;14.50;99.90;;;;;;5089572;28;20056;-78
2023/10/01 01:51:19;;;;;;;10.27;3.10;;;14.50;99.90;;;;;;5078800;27;20042;-77
2023/10/01 01:54:05;;;;;;;7.55;3.05;;;14.50;99.90;;;;;;5069879;28;20104;-77
2023/10/01 01:56:51;;;;;;;9.07;3.42;;;14.50;99.90;;;;;;5085850;27;20046;-77
2023/10/01 01:59:38;;;;;;;7.65;2.80;;;14.50;99.90;;;;;;5098628;28;20047;-77
2023/10/01 02:02:24;;;;;;;7.53;3.10;;;14.50;99.90;;;;;;5062181;28;20054;-77
2023/10/01 02:05:10;;;;;;;9.13;3.22;;;14.50;99.90;;;;;;5089762;27;20047;-77
2023/10/01 02:08:06;;;;;;;7.88;2.90;;;14.40;99.90;;;;;;5079337;28;20443;-77
2023/10/01 02:10:54;;;;;;;7.43;2.85;;;14.50;99.90;;;;;;5073381;27;20063;-77
2023/10/01 02:13:40;;;;;;;5.65;2.78;;;14.40;99.90;;;;;;5066078;28;20524;-77
2023/10/01 02:19:14;;;;;;;6.28;2.67;;;14.50;99.90;;;;;;5077830;28;20061;-76
2023/10/01 02:22:02;;;;;;;11.23;3.25;;;14.40;99.90;;;;;;5093101;28;20036;-76
2023/10/01 02:24:54;;;;;;;7.10;2.45;;;14.50;99.90;;;;;;5098360;27;20042;-76
2023/10/01 02:27:49;;;;;;;6.78;2.70;;;14.50;99.90;;;;;;5093273;28;20036;-77
2023/10/01 02:30:35;;;;;;;8.00;3.45;;;14.50;99.90;;;;;;5111734;27;20468;-77
2023/10/01 02:33:21;;;;;;;6.22;2.55;;;14.50;99.90;;;;;;5079142;28;20074;-77
2023/10/01 02:36:12;;;;;;;11.80;3.55;;;14.50;99.90;;;;;;5080133;28;20082;-76
2023/10/01 02:38:58;;;;;;;7.60;3.13;;;14.50;99.90;;;;;;5093106;28;20038;-77
2023/10/01 02:42:03;;;;;;;9.57;2.90;;;14.50;99.90;;;;;;5063450;28;20126;-77
2023/10/01 02:44:53;;;;;;;8.20;3.25;;;14.50;99.90;;;;;;5092085;27;20031;-77
2023/10/01 02:47:45;;;;;;;12.05;2.72;;;14.50;99.90;;;;;;5064984;28;20050;-77
2023/10/01 02:50:30;;;;;;;11.82;3.22;;;14.50;99.90;;;;;;5089884;28;20050;-77
2023/10/01 02:53:20;;;;;;;9.45;3.40;;;14.50;99.90;;;;;;5064136;28;20050;-77
2023/10/01 02:56:12;;;;;;;14.88;3.58;;;14.50;99.90;;;;;;5076190;28;20036;-76
2023/10/01 02:59:09;;;;;;;10.43;3.70;;;14.50;99.90;;;;;;5065723;28;20150;-77
2023/10/01 03:01:55;;;;;;;11.80;3.63;;;14.50;99.90;;;;;;5071972;28;20044;-77
2023/10/01 03:04:41;;;;;;;6.82;3.13;;;14.60;99.90;;;;;;5097992;28;20035;-77
2023/10/01 03:07:33;;;;;;;8.32;2.85;;;14.50;99.90;;;;;;5098666;28;20070;-77
2023/10/01 03:10:25;;;;;;;5.68;2.75;;;14.50;99.90;;;;;;5075813;28;20067;-77
2023/10/01 03:13:18;;;;;;;9.00;3.08;;;14.50;99.90;;;;;;5067671;28;20115;-77
2023/10/01 03:16:42;;;;;;;8.85;3.88;;;14.50;99.90;;;;;;5096282;28;20675;-77
2023/10/01 03:19:28;;;;;;;9.00;3.08;;;14.50;99.90;;;;;;5090560;28;20035;-77
2023/10/01 03:22:15;;;;;;;9.63;2.83;;;14.50;99.90;;;;;;5077387;28;20540;-77
2023/10/01 03:25:13;;;;;;;10.45;3.20;;;14.50;99.90;;;;;;5077597;28;20046;-77
2023/10/01 03:27:59;;;;;;;7.68;3.00;;;14.50;99.90;;;;;;5097255;27;20043;-77
2023/10/01 03:30:46;;;;;;;7.57;2.92;;;14.50;99.90;;;;;;5101911;28;20050;-77
2023/10/01 03:33:39;;;;;;;11.25;3.35;;;14.50;99.90;;;;;;5094688;27;20436;-77
2023/10/01 03:36:25;;;;;;;10.68;3.10;;;14.50;99.90;;;;;;5084079;28;20039;-77
2023/10/01 03:39:26;;;;;;;6.47;2.88;;;14.50;99.90;;;;;;5075752;27;20054;-77
2023/10/01 03:42:13;;;;;;;7.20;2.72;;;14.50;99.90;;;;;;5071107;28;20417;-77
2023/10/01 03:47:57;;;;;;;8.63;3.20;;;14.40;99.90;;;;;;5081198;28;20575;-77
2023/10/01 03:50:46;;;;;;;11.18;3.38;;;14.40;99.90;;;;;;5069146;28;20051;-77
2023/10/01 03:53:32;;;;;;;7.95;2.78;;;14.40;99.90;;;;;;5080909;27;20467;-76
2023/10/01 03:56:20;;;;;;;6.53;2.80;;;14.40;99.90;;;;;;5083272;28;20051;-77
2023/10/01 03:59:15;;;;;;;6.53;2.70;;;14.40;99.90;;;;;;5099829;27;20122;-77
2023/10/01 04:02:27;;;;;;;9.27;3.15;;;14.40;99.90;;;;;;5072210;28;20258;-77
2023/10/01 04:05:21;;;;;;;10.75;3.35;;;14.40;99.90;;;;;;5092709;27;20043;-77
2023/10/01 04:08:10;;;;;;;8.88;2.95;;;14.40;99.90;;;;;;5077798;28;20124;-77
2023/10/01 04:10:58;;;;;;;9.00;3.88;;;14.40;99.90;;;;;;5100760;27;20043;-77
2023/10/01 04:13:44;;;;;;;;;;;14.40;99.90;;;;;;5084232;28;20074;-77
2023/10/01 04:16:34;;;;;;;5.55;2.72;;;14.40;99.90;;;;;;5103366;27;19911;-77
2023/10/01 04:19:24;;;;;;;8.52;3.00;;;14.40;99.90;;;;;;5082056;28;20082;-77
2023/10/01 04:22:10;;;;;;;6.45;2.72;;;14.40;99.90;;;;;;5094244;28;20108;-77
2023/10/01 04:28:12;;;;;;;8.25;3.10;;;14.30;99.90;;;;;;5089989;27;20039;-77
2023/10/01 04:31:03;;;;;;;10.73;3.43;;;14.40;99.90;;;;;;5066683;28;20047;-77
2023/10/01 04:33:50;;;;;;;9.73;2.95;;;14.30;99.90;;;;;;5087195;28;20067;-77
2023/10/01 04:36:36;;;;;;;9.40;3.63;;;14.40;99.90;;;;;;5085718;27;20478;-77
2023/10/01 04:39:22;;;;;;;8.85;3.03;;;14.30;99.90;;;;;;5077628;28;20080;-77
2023/10/01 04:42:09;;;;;;;9.40;2.90;;;14.30;99.90;;;;;;5075035;27;20036;-77
2023/10/01 04:44:55;;;;;;;7.32;3.42;;;14.30;99.90;;;;;;5096825;28;20434;-77
2023/10/01 04:47:41;;;;;;;8.98;3.00;;;14.30;99.90;;;;;;5081813;28;20049;-77
2023/10/01 04:50:31;;;;;;;8.02;3.13;;;14.30;99.90;;;;;;5077414;27;20067;-77
2023/10/01 04:53:20;;;;;;;8.35;3.38;;;14.20;99.90;;;;;;5067983;28;20047;-77
2023/10/01 04:56:06;;;;;;;8.15;2.72;;;14.20;99.90;;;;;;5094603;27;20093;-77
2023/10/01 04:58:52;;;;;;;8.55;2.88;;;14.20;99.90;;;;;;5082499;28;20042;-77
2023/10/01 05:01:38;;;;;;;8.25;3.40;;;14.20;99.90;;;;;;5116118;27;20158;-77
2023/10/01 05:04:24;;;;;;;5.35;2.88;;;14.10;99.90;;;;;;5065802;28;20389;-77
2023/10/01 05:07:14;;;;;;;8.68;3.53;;;14.10;99.90;;;;;;5095656;28;20043;-77
2023/10/01 05:10:02;;;;;;;9.82;3.33;;;14.10;99.90;;;;;;5097698;27;20583;-77
2023/10/01 05:12:54;;;;;;;7.53;3.45;;;14.10;99.90;;;;;;5101001;28;20043;-77
2023/10/01 05:15:40;;;;;;;8.02;2.95;;;14.00;99.90;;;;;;5085941;27;20039;-75
2023/10/01 05:18:26;;;;;;;8.38;2.90;;;14.00;99.90;;;;;;5081429;28;20480;-75
2023/10/01 05:21:13;;;;;;;11.70;3.45;;;14.00;99.90;;;;;;5097150;28;20058;-75
2023/10/01 05:23:59;;;;;;;7.40;3.25;;;14.00;99.90;;;;;;5061962;28;20475;-74
2023/10/01 05:26:45;;;;;;;11.30;3.20;;;14.00;99.90;;;;;;5095573;28;20055;-75
2023/10/01 05:29:33;;;;;;;9.32;3.22;;;14.00;99.90;;;;;;5096399;27;20038;-75
2023/10/01 05:32:19;;;;;;;10.03;3.40;;;14.00;99.90;;;;;;5085030;28;20527;-75
2023/10/01 05:35:14;;;;;;;8.52;3.17;;;14.00;99.90;;;;;;5086616;27;20031;-74
2023/10/01 05:38:10;;;;;;;7.95;3.63;;;13.90;99.90;;;;;;5095131;28;20043;-75
2023/10/01 05:40:56;;;;;;;9.90;3.45;;;14.00;99.90;;;;;;5096921;27;20040;-75
2023/10/01 05:43:52;;;;;;;8.70;3.25;;;13.90;99.90;;;;;;5098339;27;20096;-75
2023/10/01 05:46:38;;;;;;;12.40;3.47;;;13.90;99.90;;;;;;5095486;28;20062;-75
2023/10/01 05:49:24;;;;;;;7.95;3.17;;;13.90;99.90;;;;;;5075245;27;20335;-75
2023/10/01 05:52:10;;;;;;;7.97;3.28;;;13.90;99.90;;;;;;5077580;28;20047;-75
2023/10/01 05:54:56;;;;;;;9.07;3.80;;;13.90;99.90;;;;;;5072131;27;20040;-75
2023/10/01 05:57:42;;;;;;;7.32;2.97;;;13.90;99.90;;;;;;5074716;28;20044;-75
2023/10/01 06:00:28;;;;;;;10.85;3.45;;;13.90;99.90;;;;;;5091413;28;20126;-75
2023/10/01 06:03:18;;;;;;;5.25;2.72;;;13.80;99.90;;;;;;5072739;28;20036;-76
2023/10/01 06:06:24;;;;;;;8.35;3.15;;;13.90;99.90;;;;;;5096607;28;20050;-75
2023/10/01 06:09:14;;;;;;;11.23;3.10;;;13.90;99.90;;;;;;5104964;27;20039;-75
2023/10/01 06:12:04;;;;;;;10.50;3.35;;;13.90;99.90;;;;;;5071843;28;20355;-75
2023/10/01 06:15:03;;;;;;;9.35;3.20;;;13.90;99.90;;;;;;5082979;28;20050;-76
2023/10/01 06:17:49;;;;;;;9.45;3.45;;;13.90;99.90;;;;;;5096994;28;20077;-75
2023/10/01 06:20:38;;;;;;;11.55;3.97;;;13.80;99.90;;;;;;5098964;27;20043;-75
2023/10/01 06:23:25;;;;;;;7.47;3.05;;;13.80;99.90;;;;;;5069800;28;20039;-75
2023/10/01 06:26:13;;;;;;;9.68;3.10;;;13.80;99.90;;;;;;5096053;27;20070;-75
2023/10/01 06:29:01;;;;;;;8.27;3.55;;;13.80;99.90;;;;;;5091044;28;20046;-75
2023/10/01 06:32:00;;;;;;;7.45;3.10;;;13.80;99.90;;;;;;5088705;28;20047;-75
2023/10/01 06:34:47;;;;;;;6.82;3.75;;;13.90;99.90;;;;;;5098571;27;20041;-75
2023/10/01 06:37:50;;;;;;;7.75;3.10;;;13.90;99.90;;;;;;5083444;28;20043;-76
2023/10/01 06:40:39;;;;;;;9.10;3.38;;;13.90;99.90;;;;;;5094500;27;20359;-75
2023/10/01 06:43:25;;;;;;;7.10;3.42;;;14.00;99.90;;;;;;5098297;28;20035;-75
2023/10/01 06:46:11;;;;;;;7.38;3.33;;;14.10;99.90;;;;;;5109625;27;20087;-76
2023/10/01 06:49:03;;;;;;;8.02;3.20;;;14.10;99.90;;;;;;5097197;28;20577;-76
2023/10/01 06:51:50;;;;;;;10.38;3.30;;;14.10;99.90;;;;;;5097481;27;20075;-76
2023/10/01 06:54:36;;;;;;;8.85;3.58;;;14.20;99.90;;;;;;5058749;28;20131;-75
2023/10/01 06:57:27;;;;;;;8.00;3.50;;;14.20;99.90;;;;;;5096056;28;20040;-75
2023/10/01 07:00:21;;;;;;;10.52;4.22;;;14.30;99.90;;;;;;5085775;28;20039;-75
2023/10/01 07:03:17;;;;;;;9.13;4.18;;;14.30;99.90;;;;;;5097983;28;20039;-75
2023/10/01 07:06:06;;;;;;;10.35;4.03;;;14.30;99.90;;;;;;5086623;28;20085;-75
2023/10/01 07:08:53;;;;;;;11.05;4.03;;;14.30;99.90;;;;;;5064616;28;20428;-75
2023/10/01 07:11:39;;;;;;;14.90;4.03;;;14.40;99.90;;;;;;5114151;28;20043;-74
2023/10/01 07:14:50;;;;;;;9.70;3.95;;;14.40;99.90;;;;;;5096371;28;20468;-76
2023/10/01 07:17:37;;;;;;;15.95;4.25;;;14.50;99.90;;;;;;5090900;28;20148;-76
2023/10/01 07:20:24;;;;;;;11.02;4.30;;;14.60;99.90;;;;;;5086731;28;20054;-77
2023/10/01 07:23:14;;;;;;;13.25;4.07;;;14.60;99.90;;;;;;5081166;28;20039;-76
2023/10/01 07:26:03;;;;;;;8.98;4.03;;;14.70;99.90;;;;;;5076876;28;20056;-76
2023/10/01 07:28:55;;;;;;;9.38;4.20;;;14.70;99.90;;;;;;5093913;28;20058;-76
2023/10/01 07:31:41;;;;;;;9.35;4.15;;;14.80;99.90;;;;;;5072890;28;20056;-77
2023/10/01 07:34:31;;;;;;;7.95;4.25;;;14.90;99.90;;;;;;5077769;28;20055;-76
2023/10/01 07:37:25;;;;;;;11.20;4.35;;;14.90;99.90;;;;;;5085928;28;20039;-76
2023/10/01 07:40:17;;;;;;;7.65;3.50;;;15.00;99.90;;;;;;5071898;28;20040;-77
2023/10/01 07:43:03;;;;;;;9.48;3.70;;;15.00;99.90;;;;;;5072738;28;20035;-77
2023/10/01 07:45:59;;;;;;;7.93;4.03;;;15.10;99.90;;;;;;5083191;28;20036;-77
2023/10/01 07:48:48;;;;;;;12.30;3.47;;;15.20;99.90;;;;;;5082898;28;20035;-77
2023/10/01 07:51:38;;;;;;;7.50;4.05;;;15.30;99.90;;;;;;5061085;28;20541;-77
2023/10/01 07:54:28;;;;;;;7.60;3.67;;;15.30;99.90;;;;;;5070093;28;20200;-77
2023/10/01 07:57:17;;;;;;;8.05;3.53;;;15.30;99.90;;;;;;5081586;28;20031;-77
2023/10/01 08:00:25;;;;;;;10.55;3.45;;;15.40;99.90;;;;;;5064775;28;20043;-77
2023/10/01 08:06:16;;;;;;;7.68;3.25;;;15.50;99.90;;;;;;5099112;28;20044;-77
2023/10/01 08:09:05;;;;;;;7.05;3.42;;;15.50;99.90;;;;;;5060343;28;20116;-77
2023/10/01 08:12:05;;;;;;;8.02;3.53;;;15.60;99.90;;;;;;5068506;28;20054;-77
2023/10/01 08:15:15;;;;;;;8.27;3.78;;;15.60;99.90;;;;;;5091616;27;20036;-77
2023/10/01 08:21:04;;;;;;;6.90;3.08;;;15.70;99.90;;;;;;5088751;27;20514;-78
2023/10/01 08:23:54;;;;;;;7.10;3.67;;;15.70;99.90;;;;;;5073198;28;20489;-78
2023/10/01 08:26:43;;;;;;;6.72;3.45;;;15.80;99.90;;;;;;5097447;27;20058;-77
2023/10/01 08:29:29;;;;;;;6.95;3.17;;;15.80;99.90;;;;;;5079874;28;20039;-77
2023/10/01 08:32:15;;;;;;;9.32;3.30;;;15.90;99.90;;;;;;5087460;27;20050;-77
2023/10/01 08:35:01;;;;;;;8.57;3.50;;;15.90;99.90;;;;;;5087113;28;20041;-76
2023/10/01 08:37:49;;;;;;;12.00;3.70;;;15.90;99.90;;;;;;5096769;28;20043;-77
2023/10/01 08:40:41;;;;;;;8.70;3.38;;;15.90;99.90;;;;;;5093184;27;20424;-77
2023/10/01 08:43:36;;;;;;;8.05;3.42;;;16.00;99.90;;;;;;5071810;28;20225;-75
2023/10/01 08:46:31;;;;;;;6.43;2.72;;;16.10;99.90;;;;;;5065676;27;20039;-77
2023/10/01 08:49:22;;;;;;;7.93;2.83;;;16.10;99.90;;;;;;5088130;28;20054;-77
2023/10/01 08:52:21;;;;;;;7.60;3.45;;;16.20;99.90;;;;;;5077486;27;20529;-77
2023/10/01 08:55:08;;;;;;;7.80;3.45;;;16.30;99.90;;;;;;5076148;28;20632;-77
2023/10/01 08:57:55;;;;;;;8.10;3.20;;;16.30;99.90;;;;;;5110664;27;20039;-76
2023/10/01 09:00:48;;;;;;;7.28;3.20;;;16.30;99.90;;;;;;5082460;28;20054;-77
2023/10/01 09:03:35;;;;;;;6.90;3.25;;;16.40;99.90;;;;;;5088429;27;20039;-77
2023/10/01 09:06:24;;;;;;;10.65;3.30;;;16.40;99.90;;;;;;5085754;28;20428;-77
2023/10/01 09:09:20;;;;;;;8.00;3.05;;;16.40;99.90;;;;;;5089616;28;20133;-77
2023/10/01 09:12:18;;;;;;;11.98;4.03;;;16.50;99.90;;;;;;5092627;27;20359;-77
2023/10/01 09:15:05;;;;;;;8.55;3.72;;;16.50;99.90;;;;;;5083253;28;20043;-77
2023/10/01 09:17:57;;;;;;;6.55;2.90;;;16.50;99.90;;;;;;5091084;27;20046;-77
2023/10/01 09:21:03;;;;;;;6.65;2.75;;;16.50;99.90;;;;;;5088154;28;20035;-77
2023/10/01 09:23:54;;;;;;;6.68;3.25;;;16.60;99.90;;;;;;5084701;27;20464;-77
2023/10/01 09:26:53;;;;;;;6.93;3.08;;;16.60;99.90;;;;;;5064995;28;20495;-77
2023/10/01 09:29:44;;;;;;;;;;;16.60;99.90;;;;;;5093910;27;20039;-78
2023/10/01 09:32:55;;;;;;;7.35;3.28;;;16.60;99.90;;;;;;5098974;28;19912;-76
2023/10/01 09:35:42;;;;;;;7.45;3.13;;;16.60;99.90;;;;;;5083568;27;20036;-77
2023/10/01 09:38:28;;;;;;;5.72;2.85;;;16.60;99.90;;;;;;5070020;28;20114;-77
2023/10/01 09:41:19;;;;;;;6.18;2.78;;;16.60;99.90;;;;;;5070364;27;20043;-77
2023/10/01 09:44:07;;;;;;;9.35;3.45;;;16.60;99.90;;;;;;5084873;28;20123;-77
2023/10/01 09:47:07;;;;;;;8.88;3.20;;;16.60;99.90;;;;;;5084290;27;20107;-77
2023/10/01 09:49:53;;;;;;;7.82;3.20;;;16.60;99.90;;;;;;5076579;28;20097;-77
2023/10/01 09:52:48;;;;;;;6.25;2.90;;;16.70;99.90;;;;;;5091728;27;20356;-77
2023/10/01 09:55:47;;;;;;;9.00;3.17;;;16.70;99.90;;;;;;5069509;28;20039;-77
2023/10/01 09:58:33;;;;;;;6.43;3.10;;;16.80;99.90;;;;;;5096840;27;20100;-77
2023/10/01 10:01:19;;;;;;;6.88;2.97;;;16.80;99.90;;;;;;5070945;28;20044;-78
2023/10/01 10:04:12;;;;;;;7.32;3.53;;;16.80;99.90;;;;;;5064186;28;20090;-77
2023/10/01 10:07:01;;;;;;;10.82;3.50;;;16.80;99.90;;;;;;5071904;27;20051;-77
2023/10/01 10:09:47;;;;;;;7.63;2.95;;;16.90;99.90;;;;;;5067629;28;20043;-77
2023/10/01 10:12:36;;;;;;;6.57;2.63;;;16.90;99.90;;;;;;5073167;27;20035;-77
2023/10/01 10:16:00;;;;;;;7.55;2.92;;;16.90;99.90;;;;;;5094095;28;20043;-78
2023/10/01 10:19:26;;;;;;;10.38;3.17;;;16.90;99.90;;;;;;5050904;28;20439;-77
2023/10/01 10:22:16;;;;;;;8.13;3.35;;;16.90;99.90;;;;;;5040958;28;20036;-77
2023/10/01 10:25:25;;;;;;;9.13;3.72;;;17.00;99.90;;;;;;5062132;28;20124;-76
2023/10/01 10:28:24;;;;;;;8.70;3.80;;;17.00;99.90;;;;;;5099514;27;20035;-77
2023/10/01 10:31:29;;;;;;;8.00;3.22;;;17.00;99.90;;;;;;5082264;28;20039;-77
2023/10/01 10:34:21;;;;;;;6.32;2.88;;;17.10;99.90;;;;;;5085015;27;20039;-77
2023/10/01 10:37:08;;;;;;;12.13;4.30;;;17.10;99.90;;;;;;5058241;28;20036;-77
2023/10/01 10:40:02;;;;;;;8.32;3.63;;;17.20;99.90;;;;;;5068591;27;20053;-77
2023/10/01 10:43:00;;;;;;;9.43;3.28;;;17.30;99.90;;;;;;5108983;27;20047;-77
2023/10/01 10:45:57;;;;;;;;;;;17.50;99.90;;;;;;5097569;27;20500;-77
2023/10/01 10:48:59;;;;;;;11.07;3.90;;;17.70;99.90;;;;;;5093329;28;19911;-77
2023/10/01 10:51:45;;;;;;;10.77;3.78;;;17.80;99.90;;;;;;5087643;27;20487;-77
2023/10/01 10:54:51;;;;;;;13.00;4.18;;;17.70;99.90;;;;;;5087208;28;20126;-78
2023/10/01 10:57:48;;;;;;;8.60;3.55;;;17.70;99.90;;;;;;5070751;28;20509;-77
2023/10/01 11:00:39;;;;;;;10.52;4.28;;;17.70;99.90;;;;;;5067692;28;20046;-78
2023/10/01 11:03:43;;;;;;;10.20;3.85;;;17.80;99.90;;;;;;5098815;28;20035;-76
2023/10/01 11:07:01;;;;;;;10.85;3.58;;;17.80;99.90;;;;;;5074437;28;20046;-76
2023/10/01 11:09:52;;;;;;;;;;;17.80;99.90;;;;;;5090826;28;20444;-77
2023/10/01 11:12:46;;;;;;;12.60;4.38;;;17.70;99.90;;;;;;5084480;28;19911;-77
2023/10/01 11:15:38;;;;;;;10.35;4.40;;;17.70;99.90;;;;;;5072509;28;20035;-77
2023/10/01 11:18:26;;;;;;;8.65;3.85;;;17.80;99.90;;;;;;5078017;28;20503;-76
2023/10/01 11:21:20;;;;;;;9.63;4.15;;;17.80;99.90;;;;;;5081960;28;20499;-77
2023/10/01 11:24:06;;;;;;;10.70;4.20;;;17.80;99.90;;;;;;5087710;28;20044;-76
2023/10/01 11:27:25;;;;;;;9.05;3.83;;;17.90;99.90;;;;;;5102236;28;20125;-77
2023/10/01 11:30:12;;;;;;;14.07;4.43;;;17.90;99.90;;;;;;5107464;28;20035;-77
2023/10/01 11:33:03;;;;;;;8.52;3.60;;;17.90;99.90;;;;;;5066204;28;20047;-77
2023/10/01 11:36:07;;;;;;;10.73;4.43;;;17.90;99.90;;;;;;5079795;28;20054;-77
2023/10/01 11:38:53;;;;;;;9.98;4.30;;;18.00;99.90;;;;;;5075177;28;20039;-77
2023/10/01 11:41:43;;;;;;;11.02;4.18;;;18.00;99.90;;;;;;5074384;28;20036;-76
2023/10/01 11:44:35;;;;;;;11.60;4.40;;;18.00;99.90;;;;;;5083302;28;20058;-77
2023/10/01 11:47:34;;;;;;;11.02;4.72;;;18.00;99.90;;;;;;5096317;27;20044;-76
2023/10/01 11:50:23;;;;;;;12.18;4.38;;;18.00;99.90;;;;;;5086263;28;20067;-76
2023/10/01 11:53:11;;;;;;;9.27;4.25;;;18.00;99.90;;;;;;5060506;27;20498;-77
2023/10/01 11:56:01;;;;;;;8.95;4.15;;;17.90;99.90;;;;;;5077612;28;20135;-76
2023/10/01 11:58:47;;;;;;;10.52;4.15;;;18.00;99.90;;;;;;5090136;27;20099;-77
2023/10/01 12:01:39;;;;;;;11.02;4.53;;;17.90;99.90;;;;;;5077459;28;20477;-77
2023/10/01 12:04:43;;;;;;;11.55;4.53;;;18.00;99.90;;;;;;5077876;27;20075;-77
2023/10/01 12:07:39;;;;;;;11.38;4.45;;;18.10;99.90;;;;;;5084984;28;20039;-78
2023/10/01 12:10:38;;;;;;;9.15;3.78;;;18.10;99.90;;;;;;5090126;27;20047;-77
2023/10/01 12:13:26;;;;;;;8.50;4.15;;;18.20;99.90;;;;;;5094534;28;20027;-77
2023/10/01 12:16:12;;;;;;;12.52;4.32;;;18.20;99.90;;;;;;5101421;27;20375;-77
2023/10/01 12:22:05;;;;;;;12.07;4.38;;;18.40;99.90;;;;;;5089406;28;20039;-77
2023/10/01 12:24:58;;;;;;;13.35;4.38;;;18.50;99.90;;;;;;5082012;27;20050;-77
2023/10/01 12:27:45;;;;;;;10.02;4.55;;;18.60;99.90;;;;;;5086763;28;20062;-77
2023/10/01 12:30:31;;;;;;;12.80;4.57;;;18.70;99.90;;;;;;5064491;27;20035;-77
2023/10/01 12:33:21;;;;;;;10.50;4.60;;;18.60;99.90;;;;;;5098693;28;20291;-77
2023/10/01 12:36:11;;;;;;;10.40;4.35;;;18.60;99.90;;;;;;5073009;28;20435;-78
2023/10/01 12:42:04;;;;;;;11.93;4.50;;;18.90;99.90;;;;;;5085774;27;20051;-77
2023/10/01 12:45:13;;;;;;;10.90;4.65;;;18.90;99.90;;;;;;5067031;28;20059;-78
2023/10/01 12:48:08;;;;;;;12.88;5.25;;;19.20;99.90;;;;;;5104111;27;20786;-77
2023/10/01 12:54:08;;;;;;;16.25;4.95;;;19.50;99.90;;;;;;5091338;27;20047;-76
2023/10/01 12:57:42;;;;;;;11.98;4.95;;;19.60;99.90;;;;;;5067503;28;20085;-77
2023/10/01 13:03:15;;;;;;;12.18;4.93;;;19.70;99.90;;;;;;5103644;28;20040;-77
2023/10/01 13:06:11;;;;;;;10.55;4.88;;;19.60;99.90;;;;;;5088703;27;20032;-77
2023/10/01 13:09:00;;;;;;;11.57;5.00;;;19.60;99.90;;;;;;5087405;28;20550;-77
2023/10/01 13:11:53;;;;;;;10.38;4.00;;;19.60;99.90;;;;;;5072286;27;20047;-77
2023/10/01 13:14:43;;;;;;;10.48;4.22;;;19.60;99.90;;;;;;5101044;28;20556;-77
2023/10/01 13:17:35;;;;;;;9.75;4.50;;;19.60;99.90;;;;;;5070990;27;20035;-77
2023/10/01 13:20:25;;;;;;;12.93;4.60;;;19.50;99.90;;;;;;5100931;28;20122;-78
2023/10/01 13:23:11;;;;;;;14.90;5.20;;;19.60;99.90;;;;;;5095195;27;20048;-77
2023/10/01 13:29:32;;;;;;;12.33;4.93;;;19.60;99.90;;;;;;5077805;27;20039;-77
2023/10/01 13:32:26;;;;;;;13.65;5.07;;;19.50;99.90;;;;;;5102732;28;20044;-77
2023/10/01 13:35:36;;;;;;;10.10;4.57;;;19.60;99.90;;;;;;5082067;28;20360;-77
2023/10/01 13:38:27;;;;;;;11.30;4.80;;;19.70;99.90;;;;;;5089163;28;20456;-77
2023/10/01 14:09:09;;;;;;;11.55;5.03;;;19.70;99.90;;;;;;5082541;27;20425;-77
2023/10/01 14:11:56;;;;;;;12.38;5.22;;;19.70;99.90;;;;;;5091413;28;20349;-77
2023/10/01 14:14:43;;;;;;;15.15;5.45;;;19.70;99.90;;;;;;5100466;27;20049;-77
2023/10/01 14:17:29;;;;;;;10.27;4.60;;;19.80;99.90;;;;;;5081555;28;20093;-75
2023/10/01 14:20:34;;;;;;;11.23;5.25;;;19.90;99.90;;;;;;5083973;27;20035;-75
2023/10/01 14:23:39;;;;;;;12.90;5.35;;;20.00;99.90;;;;;;5083016;28;20053;-75
2023/10/01 14:26:33;;;;;;;11.48;6.22;;;20.00;99.90;;;;;;5098897;27;20507;-75
2023/10/01 14:29:25;;;;;;;13.43;5.47;;;20.00;99.90;;;;;;5085588;28;20146;-75
2023/10/01 14:32:11;;;;;;;11.85;5.57;;;20.20;99.90;;;;;;5099667;27;20111;-75
2023/10/01 14:35:01;;;;;;;10.10;5.13;;;20.30;99.90;;;;;;5094803;28;20040;-75
2023/10/01 14:37:57;;;;;;;10.57;5.25;;;20.30;99.90;;;;;;5097695;28;20456;-75
2023/10/01 14:40:55;;;;;;;9.45;5.07;;;20.20;99.90;;;;;;5078471;28;20367;-74
2023/10/01 14:43:49;;;;;;;12.95;5.90;;;20.20;99.90;;;;;;5082652;28;20473;-75
2023/10/01 14:46:38;;;;;;;11.88;5.13;;;20.20;99.90;;;;;;5073519;28;20050;-75
2023/10/01 14:49:27;;;;;;;11.85;5.35;;;20.30;99.90;;;;;;5064442;28;20043;-74
2023/10/01 14:52:22;;;;;;;13.77;5.40;;;20.20;99.90;;;;;;5076983;27;20054;-75
2023/10/01 14:55:22;;;;;;;10.55;4.80;;;20.20;99.90;;;;;;5095838;28;20054;-75
2023/10/01 14:58:15;;;;;;;10.73;4.70;;;20.30;99.90;;;;;;5089636;27;20043;-75
2023/10/01 15:01:01;;;;;;;11.90;5.43;;;20.30;99.90;;;;;;5085480;28;20035;-75
2023/10/01 15:03:56;;;;;;;10.82;5.65;;;20.30;99.90;;;;;;5086293;28;20050;-75
2023/10/01 15:06:42;;;;;;;11.57;4.88;;;20.20;99.90;;;;;;5082463;28;20253;-76
2023/10/01 15:09:28;;;;;;;13.32;5.28;;;20.30;99.90;;;;;;5082667;28;20464;-76
2023/10/01 15:12:26;;;;;;;13.13;5.22;;;20.30;99.90;;;;;;5063936;28;20078;-74
2023/10/01 15:15:18;;;;;;;12.85;5.45;;;20.30;99.90;;;;;;5098070;28;20035;-75
2023/10/01 15:18:04;;;;;;;14.60;5.22;;;20.30;99.90;;;;;;5074482;28;20767;-75
2023/10/01 15:20:50;;;;;;;11.52;4.82;;;20.30;99.90;;;;;;5078240;28;20056;-75
2023/10/01 15:23:44;;;;;;;11.40;4.93;;;20.30;99.90;;;;;;5078173;27;20357;-75
2023/10/01 15:26:30;;;;;;;9.55;4.65;;;20.20;99.90;;;;;;5087596;28;20044;-75
2023/10/01 15:29:16;;;;;;;9.68;4.65;;;20.20;99.90;;;;;;5067906;28;20085;-75
2023/10/01 15:32:14;;;;;;;11.30;4.80;;;20.20;99.90;;;;;;5066937;28;20044;-75
2023/10/01 15:35:00;;;;;;;10.75;5.22;;;20.20;99.90;;;;;;5077634;28;20484;-74
2023/10/01 15:37:46;;;;;;;11.20;4.90;;;20.20;99.90;;;;;;5067013;28;20132;-74
2023/10/01 15:40:32;;;;;;;11.75;4.68;;;20.20;99.90;;;;;;5060881;28;20134;-75
2023/10/01 15:43:20;;;;;;;10.32;4.95;;;20.20;99.90;;;;;;5053196;28;20142;-75
2023/10/01 15:46:15;;;;;;;11.00;5.63;;;20.20;99.90;;;;;;5067209;28;20047;-75